UAL3548 KIAD-KPWM
Flight info
| Callsign | UAL3548 |
|---|---|
| Flight time | 1h 15m |
| Altitude | 35000 |
| Route | JERES2 JERES Q221 BIGEO J49 HNK CAM CDOGG4 |
| Aircraft | A320/M-SDE3FGHIRWY/LB1 |
Departure
| Time | 2026-05-07 19:57 |
|---|---|
| Airport | Washington Dulles International Airport (KIAD) |
Arrival
| Time | 2026-05-07 21:12 |
|---|---|
| Airport | Portland International Jetport (KPWM) |
| Time | Latitude | Longitude | Altitude | Speed | Heading |
|---|---|---|---|---|---|
| 2026-05-07 19:09 | 38.94576 | -77.44953 | 301 ft | 0 kts | 188° |
| 2026-05-07 19:46 | 38.94593 | -77.44950 | 301 ft | 4 kts | 189° |
| 2026-05-07 19:47 | 38.94618 | -77.44946 | 300 ft | 4 kts | 186° |
| 2026-05-07 19:47 | 38.94643 | -77.44939 | 301 ft | 4 kts | 211° |
| 2026-05-07 19:47 | 38.94658 | -77.44919 | 300 ft | 4 kts | 262° |
| 2026-05-07 19:47 | 38.94659 | -77.44910 | 300 ft | 1 kts | 271° |
| 2026-05-07 19:50 | 38.94659 | -77.44920 | 300 ft | 5 kts | 271° |
| 2026-05-07 19:50 | 38.94660 | -77.44970 | 301 ft | 6 kts | 271° |
| 2026-05-07 19:50 | 38.94661 | -77.45032 | 300 ft | 8 kts | 276° |
| 2026-05-07 19:51 | 38.94671 | -77.45115 | 302 ft | 11 kts | 278° |
| 2026-05-07 19:51 | 38.94666 | -77.45218 | 302 ft | 13 kts | 259° |
| 2026-05-07 19:51 | 38.94662 | -77.45344 | 300 ft | 15 kts | 270° |
| 2026-05-07 19:51 | 38.94664 | -77.45467 | 300 ft | 15 kts | 271° |
| 2026-05-07 19:52 | 38.94664 | -77.45553 | 300 ft | 2 kts | 269° |
| 2026-05-07 19:52 | 38.94655 | -77.45587 | 300 ft | 7 kts | 234° |
| 2026-05-07 19:52 | 38.94603 | -77.45610 | 302 ft | 9 kts | 182° |
| 2026-05-07 19:52 | 38.94529 | -77.45609 | 301 ft | 13 kts | 181° |
| 2026-05-07 19:53 | 38.94419 | -77.45611 | 300 ft | 17 kts | 181° |
| 2026-05-07 19:53 | 38.94291 | -77.45614 | 301 ft | 20 kts | 180° |
| 2026-05-07 19:53 | 38.94146 | -77.45616 | 300 ft | 22 kts | 180° |
| 2026-05-07 19:53 | 38.93995 | -77.45618 | 300 ft | 22 kts | 180° |
| 2026-05-07 19:54 | 38.93832 | -77.45619 | 301 ft | 25 kts | 180° |
| 2026-05-07 19:54 | 38.93699 | -77.45613 | 300 ft | 15 kts | 148° |
| 2026-05-07 19:54 | 38.93641 | -77.45526 | 303 ft | 0 kts | 130° |
| 2026-05-07 19:54 | 38.93638 | -77.45521 | 302 ft | 2 kts | 130° |
| 2026-05-07 19:55 | 38.93611 | -77.45493 | 300 ft | 6 kts | 156° |
| 2026-05-07 19:55 | 38.93556 | -77.45512 | 300 ft | 10 kts | 201° |
| 2026-05-07 19:55 | 38.93479 | -77.45548 | 300 ft | 13 kts | 200° |
| 2026-05-07 19:55 | 38.93386 | -77.45608 | 298 ft | 17 kts | 229° |
| 2026-05-07 19:56 | 38.93388 | -77.45699 | 302 ft | 0 kts | 292° |
| 2026-05-07 19:56 | 38.93398 | -77.45729 | 301 ft | 14 kts | 292° |
| 2026-05-07 19:56 | 38.93507 | -77.46092 | 301 ft | 78 kts | 290° |
| 2026-05-07 19:56 | 38.93769 | -77.46984 | 301 ft | 134 kts | 290° |
| 2026-05-07 19:57 | 38.94145 | -77.48280 | 402 ft | 168 kts | 290° |
| 2026-05-07 19:57 | 38.94389 | -77.49143 | 838 ft | 162 kts | 290° |
| 2026-05-07 19:57 | 38.94763 | -77.50516 | 1526 ft | 169 kts | 290° |
| 2026-05-07 19:57 | 38.95327 | -77.52475 | 2139 ft | 187 kts | 302° |
| 2026-05-07 19:58 | 38.96239 | -77.53803 | 2369 ft | 213 kts | 318° |
| 2026-05-07 19:58 | 38.97452 | -77.55151 | 2633 ft | 244 kts | 320° |
| 2026-05-07 19:58 | 38.98750 | -77.56627 | 2891 ft | 252 kts | 318° |
| 2026-05-07 19:58 | 38.99691 | -77.57555 | 2961 ft | 253 kts | 332° |
| 2026-05-07 19:59 | 39.01361 | -77.58187 | 2994 ft | 253 kts | 357° |
| 2026-05-07 19:59 | 39.03125 | -77.58143 | 2993 ft | 254 kts | 0° |
| 2026-05-07 19:59 | 39.04895 | -77.58073 | 3127 ft | 257 kts | 0° |
| 2026-05-07 19:59 | 39.06682 | -77.58005 | 4132 ft | 257 kts | 1° |
| 2026-05-07 20:00 | 39.08484 | -77.57938 | 5139 ft | 260 kts | 0° |
| 2026-05-07 20:00 | 39.10303 | -77.57872 | 6124 ft | 264 kts | 360° |
| 2026-05-07 20:00 | 39.12158 | -77.57806 | 7029 ft | 268 kts | 358° |
| 2026-05-07 20:00 | 39.14040 | -77.57742 | 7846 ft | 274 kts | 356° |
| 2026-05-07 20:01 | 39.15967 | -77.57680 | 8674 ft | 279 kts | 355° |
| 2026-05-07 20:01 | 39.17927 | -77.57617 | 9500 ft | 285 kts | 353° |
| 2026-05-07 20:01 | 39.19931 | -77.57553 | 10177 ft | 295 kts | 352° |
| 2026-05-07 20:01 | 39.22065 | -77.57497 | 10447 ft | 319 kts | 353° |
| 2026-05-07 20:02 | 39.24338 | -77.57432 | 10914 ft | 332 kts | 353° |
| 2026-05-07 20:02 | 39.26675 | -77.57348 | 11550 ft | 340 kts | 353° |
| 2026-05-07 20:02 | 39.29062 | -77.57251 | 12205 ft | 347 kts | 354° |
| 2026-05-07 20:02 | 39.31498 | -77.57156 | 12844 ft | 354 kts | 353° |
| 2026-05-07 20:03 | 39.33983 | -77.57063 | 13485 ft | 360 kts | 353° |
| 2026-05-07 20:03 | 39.36510 | -77.56974 | 14080 ft | 366 kts | 353° |
| 2026-05-07 20:03 | 39.39073 | -77.56795 | 14703 ft | 375 kts | 359° |
| 2026-05-07 20:03 | 39.41660 | -77.56011 | 15346 ft | 389 kts | 12° |
| 2026-05-07 20:04 | 39.44226 | -77.54820 | 15999 ft | 393 kts | 12° |
| 2026-05-07 20:04 | 39.46806 | -77.53616 | 16650 ft | 396 kts | 12° |
| 2026-05-07 20:04 | 39.49413 | -77.52403 | 17307 ft | 399 kts | 12° |
| 2026-05-07 20:04 | 39.52038 | -77.51186 | 17971 ft | 403 kts | 11° |
| 2026-05-07 20:05 | 39.54689 | -77.49959 | 18572 ft | 406 kts | 11° |
| 2026-05-07 20:05 | 39.57365 | -77.48721 | 19126 ft | 410 kts | 11° |
| 2026-05-07 20:05 | 39.60065 | -77.47476 | 19673 ft | 414 kts | 11° |
| 2026-05-07 20:05 | 39.62770 | -77.46285 | 20212 ft | 414 kts | 6° |
| 2026-05-07 20:06 | 39.65565 | -77.45571 | 20683 ft | 406 kts | 355° |
| 2026-05-07 20:06 | 39.68360 | -77.45425 | 21185 ft | 402 kts | 350° |
| 2026-05-07 20:06 | 39.71177 | -77.45393 | 21725 ft | 406 kts | 349° |
| 2026-05-07 20:06 | 39.74011 | -77.45358 | 22280 ft | 409 kts | 350° |
| 2026-05-07 20:07 | 39.76873 | -77.45317 | 22826 ft | 413 kts | 350° |
| 2026-05-07 20:07 | 39.79761 | -77.45272 | 23388 ft | 417 kts | 350° |
| 2026-05-07 20:07 | 39.82674 | -77.45223 | 23848 ft | 420 kts | 350° |
| 2026-05-07 20:07 | 39.85613 | -77.45171 | 24284 ft | 424 kts | 350° |
| 2026-05-07 20:08 | 39.88568 | -77.45119 | 24730 ft | 426 kts | 349° |
| 2026-05-07 20:08 | 39.91543 | -77.45068 | 25173 ft | 429 kts | 349° |
| 2026-05-07 20:08 | 39.94540 | -77.45018 | 25602 ft | 432 kts | 349° |
| 2026-05-07 20:08 | 39.97553 | -77.44968 | 25987 ft | 434 kts | 349° |
| 2026-05-07 20:09 | 40.00583 | -77.44920 | 26418 ft | 437 kts | 349° |
| 2026-05-07 20:09 | 40.03630 | -77.44871 | 26859 ft | 439 kts | 349° |
| 2026-05-07 20:09 | 40.06693 | -77.44823 | 27267 ft | 442 kts | 349° |
| 2026-05-07 20:10 | 40.12874 | -77.44713 | 28088 ft | 446 kts | 349° |
| 2026-05-07 20:10 | 40.15990 | -77.44654 | 28498 ft | 449 kts | 349° |
| 2026-05-07 20:10 | 40.19115 | -77.44597 | 28909 ft | 451 kts | 349° |
| 2026-05-07 20:10 | 40.22262 | -77.44543 | 29312 ft | 453 kts | 349° |
| 2026-05-07 20:11 | 40.25421 | -77.44489 | 29717 ft | 455 kts | 349° |
| 2026-05-07 20:11 | 40.28597 | -77.44436 | 30068 ft | 458 kts | 349° |
| 2026-05-07 20:11 | 40.31787 | -77.44379 | 30390 ft | 460 kts | 349° |
| 2026-05-07 20:11 | 40.34955 | -77.44321 | 30710 ft | 462 kts | 349° |
| 2026-05-07 20:12 | 40.38222 | -77.44262 | 31023 ft | 465 kts | 349° |
| 2026-05-07 20:12 | 40.41421 | -77.44205 | 31359 ft | 466 kts | 349° |
| 2026-05-07 20:12 | 40.44657 | -77.44144 | 31789 ft | 465 kts | 349° |
| 2026-05-07 20:12 | 40.47890 | -77.44087 | 32218 ft | 464 kts | 348° |
| 2026-05-07 20:13 | 40.51111 | -77.44034 | 32650 ft | 463 kts | 348° |
| 2026-05-07 20:13 | 40.54333 | -77.43982 | 33063 ft | 463 kts | 348° |
| 2026-05-07 20:13 | 40.57558 | -77.43931 | 33493 ft | 463 kts | 348° |
| 2026-05-07 20:13 | 40.60779 | -77.43876 | 33928 ft | 463 kts | 348° |
| 2026-05-07 20:14 | 40.64005 | -77.43823 | 34285 ft | 462 kts | 348° |
| 2026-05-07 20:14 | 40.67212 | -77.43774 | 34620 ft | 462 kts | 348° |
| 2026-05-07 20:14 | 40.70442 | -77.43724 | 34835 ft | 464 kts | 348° |
| 2026-05-07 20:15 | 40.76858 | -77.43602 | 34885 ft | 460 kts | 348° |
| 2026-05-07 20:15 | 40.83242 | -77.43466 | 34883 ft | 459 kts | 348° |
| 2026-05-07 20:16 | 40.89627 | -77.43354 | 34889 ft | 458 kts | 348° |
| 2026-05-07 20:16 | 40.96001 | -77.43260 | 34888 ft | 458 kts | 348° |
| 2026-05-07 20:17 | 41.02376 | -77.43163 | 34898 ft | 458 kts | 348° |
| 2026-05-07 20:17 | 41.08752 | -77.43040 | 34902 ft | 461 kts | 351° |
| 2026-05-07 20:17 | 41.11989 | -77.42372 | 34902 ft | 481 kts | 6° |
| 2026-05-07 20:18 | 41.15156 | -77.40685 | 34904 ft | 501 kts | 20° |
| 2026-05-07 20:18 | 41.18039 | -77.37965 | 34899 ft | 517 kts | 37° |
| 2026-05-07 20:18 | 41.20406 | -77.34301 | 34886 ft | 529 kts | 54° |
| 2026-05-07 20:19 | 41.24140 | -77.25834 | 34866 ft | 532 kts | 57° |
| 2026-05-07 20:19 | 41.27846 | -77.17308 | 34857 ft | 533 kts | 57° |
| 2026-05-07 20:20 | 41.31562 | -77.08758 | 34856 ft | 534 kts | 57° |
| 2026-05-07 20:20 | 41.35280 | -77.00207 | 34864 ft | 534 kts | 57° |
| 2026-05-07 20:21 | 41.38994 | -76.91642 | 34871 ft | 534 kts | 57° |
| 2026-05-07 20:21 | 41.42700 | -76.83060 | 34875 ft | 534 kts | 57° |
| 2026-05-07 20:22 | 41.46398 | -76.74467 | 34882 ft | 534 kts | 57° |
| 2026-05-07 20:22 | 41.50066 | -76.65921 | 34888 ft | 534 kts | 58° |
| 2026-05-07 20:23 | 41.53746 | -76.57314 | 34888 ft | 534 kts | 58° |
| 2026-05-07 20:23 | 41.57429 | -76.48688 | 34896 ft | 534 kts | 58° |
| 2026-05-07 20:24 | 41.61097 | -76.40062 | 34897 ft | 534 kts | 58° |
| 2026-05-07 20:24 | 41.64758 | -76.31427 | 34899 ft | 534 kts | 58° |
| 2026-05-07 20:25 | 41.68411 | -76.22779 | 34905 ft | 534 kts | 58° |
| 2026-05-07 20:25 | 41.72057 | -76.14121 | 34905 ft | 534 kts | 58° |
| 2026-05-07 20:26 | 41.75696 | -76.05471 | 34901 ft | 533 kts | 58° |
| 2026-05-07 20:26 | 41.79336 | -75.96808 | 34902 ft | 534 kts | 58° |
| 2026-05-07 20:27 | 41.82964 | -75.88125 | 34908 ft | 534 kts | 59° |
| 2026-05-07 20:27 | 41.86584 | -75.79431 | 34908 ft | 534 kts | 59° |
| 2026-05-07 20:28 | 41.90197 | -75.70727 | 34912 ft | 534 kts | 59° |
| 2026-05-07 20:28 | 41.93804 | -75.62023 | 34915 ft | 534 kts | 59° |
| 2026-05-07 20:29 | 41.97396 | -75.53296 | 34917 ft | 534 kts | 59° |
| 2026-05-07 20:29 | 42.00989 | -75.44574 | 34920 ft | 534 kts | 59° |
| 2026-05-07 20:30 | 42.04579 | -75.35829 | 34919 ft | 534 kts | 59° |
| 2026-05-07 20:30 | 42.08251 | -75.27155 | 34921 ft | 533 kts | 56° |
| 2026-05-07 20:31 | 42.12320 | -75.18826 | 34906 ft | 532 kts | 52° |
| 2026-05-07 20:31 | 42.16532 | -75.10616 | 34908 ft | 533 kts | 53° |
| 2026-05-07 20:32 | 42.20648 | -75.02296 | 34904 ft | 534 kts | 54° |
| 2026-05-07 20:32 | 42.24662 | -74.93875 | 34906 ft | 534 kts | 55° |
| 2026-05-07 20:33 | 42.28668 | -74.85439 | 34910 ft | 534 kts | 55° |
| 2026-05-07 20:33 | 42.32700 | -74.77000 | 34911 ft | 534 kts | 54° |
| 2026-05-07 20:34 | 42.36753 | -74.68575 | 34911 ft | 534 kts | 54° |
| 2026-05-07 20:34 | 42.40797 | -74.60137 | 34919 ft | 535 kts | 55° |
| 2026-05-07 20:35 | 42.44798 | -74.51728 | 34914 ft | 535 kts | 55° |
| 2026-05-07 20:35 | 42.48821 | -74.43240 | 34915 ft | 535 kts | 55° |
| 2026-05-07 20:36 | 42.52830 | -74.34740 | 34916 ft | 536 kts | 55° |
| 2026-05-07 20:36 | 42.56837 | -74.26227 | 34919 ft | 535 kts | 55° |
| 2026-05-07 20:37 | 42.60843 | -74.17703 | 34916 ft | 535 kts | 55° |
| 2026-05-07 20:37 | 42.64850 | -74.09178 | 34905 ft | 536 kts | 55° |
| 2026-05-07 20:38 | 42.68846 | -74.00646 | 34896 ft | 535 kts | 55° |
| 2026-05-07 20:38 | 42.72836 | -73.92092 | 34896 ft | 536 kts | 55° |
| 2026-05-07 20:39 | 42.76824 | -73.83522 | 34892 ft | 536 kts | 56° |
| 2026-05-07 20:39 | 42.80800 | -73.74938 | 34892 ft | 536 kts | 56° |
| 2026-05-07 20:40 | 42.84778 | -73.66339 | 34894 ft | 536 kts | 56° |
| 2026-05-07 20:40 | 42.88748 | -73.57729 | 34894 ft | 537 kts | 56° |
| 2026-05-07 20:41 | 42.92710 | -73.49106 | 34873 ft | 537 kts | 56° |
| 2026-05-07 20:41 | 42.96671 | -73.40469 | 34874 ft | 537 kts | 56° |
| 2026-05-07 20:42 | 42.99939 | -73.33307 | 34601 ft | 531 kts | 57° |
| 2026-05-07 20:42 | 43.01875 | -73.29025 | 34232 ft | 527 kts | 57° |
| 2026-05-07 20:42 | 43.03789 | -73.24786 | 33851 ft | 523 kts | 57° |
| 2026-05-07 20:42 | 43.05532 | -73.20439 | 33414 ft | 519 kts | 69° |
| 2026-05-07 20:43 | 43.06645 | -73.15781 | 32945 ft | 514 kts | 76° |
| 2026-05-07 20:43 | 43.07623 | -73.11091 | 32492 ft | 511 kts | 76° |
| 2026-05-07 20:43 | 43.08586 | -73.06424 | 31753 ft | 514 kts | 76° |
| 2026-05-07 20:43 | 43.09560 | -73.01669 | 31013 ft | 519 kts | 76° |
| 2026-05-07 20:44 | 43.10527 | -72.96932 | 30595 ft | 514 kts | 76° |
| 2026-05-07 20:44 | 43.11482 | -72.92247 | 30220 ft | 509 kts | 76° |
| 2026-05-07 20:44 | 43.12433 | -72.87591 | 29690 ft | 507 kts | 76° |
| 2026-05-07 20:44 | 43.13379 | -72.82956 | 29118 ft | 505 kts | 76° |
| 2026-05-07 20:45 | 43.14321 | -72.78345 | 28610 ft | 501 kts | 76° |
| 2026-05-07 20:45 | 43.15256 | -72.73759 | 28130 ft | 498 kts | 76° |
| 2026-05-07 20:45 | 43.16178 | -72.69208 | 27672 ft | 494 kts | 76° |
| 2026-05-07 20:45 | 43.17093 | -72.64688 | 27217 ft | 492 kts | 76° |
| 2026-05-07 20:46 | 43.18004 | -72.60180 | 26780 ft | 489 kts | 76° |
| 2026-05-07 20:46 | 43.18903 | -72.55721 | 26449 ft | 483 kts | 76° |
| 2026-05-07 20:46 | 43.19799 | -72.51267 | 25894 ft | 485 kts | 76° |
| 2026-05-07 20:46 | 43.20691 | -72.46820 | 25484 ft | 483 kts | 76° |
| 2026-05-07 20:47 | 43.21580 | -72.42382 | 24988 ft | 483 kts | 76° |
| 2026-05-07 20:47 | 43.22466 | -72.37942 | 24528 ft | 483 kts | 76° |
| 2026-05-07 20:47 | 43.23349 | -72.33506 | 24126 ft | 481 kts | 76° |
| 2026-05-07 20:47 | 43.24224 | -72.29088 | 23752 ft | 479 kts | 76° |
| 2026-05-07 20:48 | 43.25094 | -72.24690 | 23288 ft | 478 kts | 76° |
| 2026-05-07 20:48 | 43.25965 | -72.20296 | 22798 ft | 476 kts | 76° |
| 2026-05-07 20:48 | 43.26833 | -72.15926 | 22265 ft | 475 kts | 76° |
| 2026-05-07 20:48 | 43.27698 | -72.11555 | 21801 ft | 472 kts | 76° |
| 2026-05-07 20:49 | 43.28555 | -72.07216 | 21262 ft | 472 kts | 76° |
| 2026-05-07 20:49 | 43.29406 | -72.02886 | 20808 ft | 468 kts | 76° |
| 2026-05-07 20:49 | 43.30248 | -71.98589 | 20313 ft | 465 kts | 77° |
| 2026-05-07 20:49 | 43.31082 | -71.94318 | 19877 ft | 461 kts | 76° |
| 2026-05-07 20:50 | 43.31908 | -71.90081 | 19401 ft | 458 kts | 77° |
| 2026-05-07 20:50 | 43.32726 | -71.85872 | 18935 ft | 454 kts | 77° |
| 2026-05-07 20:50 | 43.33534 | -71.81703 | 18486 ft | 451 kts | 77° |
| 2026-05-07 20:50 | 43.34335 | -71.77551 | 17962 ft | 448 kts | 77° |
| 2026-05-07 20:51 | 43.35131 | -71.73421 | 17438 ft | 444 kts | 77° |
| 2026-05-07 20:51 | 43.35921 | -71.69340 | 16923 ft | 440 kts | 76° |
| 2026-05-07 20:51 | 43.36702 | -71.65299 | 16408 ft | 435 kts | 76° |
| 2026-05-07 20:51 | 43.37474 | -71.61296 | 15949 ft | 429 kts | 76° |
| 2026-05-07 20:52 | 43.38230 | -71.57359 | 15506 ft | 424 kts | 76° |
| 2026-05-07 20:52 | 43.38976 | -71.53456 | 15038 ft | 420 kts | 76° |
| 2026-05-07 20:52 | 43.39710 | -71.49592 | 14552 ft | 416 kts | 75° |
| 2026-05-07 20:52 | 43.40437 | -71.45767 | 14091 ft | 412 kts | 76° |
| 2026-05-07 20:53 | 43.41155 | -71.41991 | 13752 ft | 405 kts | 75° |
| 2026-05-07 20:53 | 43.41863 | -71.38266 | 13331 ft | 400 kts | 75° |
| 2026-05-07 20:53 | 43.42562 | -71.34591 | 12869 ft | 395 kts | 75° |
| 2026-05-07 20:53 | 43.43250 | -71.30960 | 12427 ft | 390 kts | 74° |
| 2026-05-07 20:54 | 43.43928 | -71.27374 | 12065 ft | 383 kts | 74° |
| 2026-05-07 20:54 | 43.44591 | -71.23853 | 11686 ft | 377 kts | 73° |
| 2026-05-07 20:54 | 43.45238 | -71.20396 | 11398 ft | 370 kts | 73° |
| 2026-05-07 20:54 | 43.45873 | -71.16996 | 11091 ft | 364 kts | 73° |
| 2026-05-07 20:55 | 43.46535 | -71.13654 | 11016 ft | 361 kts | 68° |
| 2026-05-07 20:55 | 43.47409 | -71.10415 | 11026 ft | 362 kts | 66° |
| 2026-05-07 20:55 | 43.48284 | -71.07184 | 10754 ft | 359 kts | 66° |
| 2026-05-07 20:55 | 43.49150 | -71.03975 | 10369 ft | 355 kts | 66° |
| 2026-05-07 20:56 | 43.50001 | -71.00806 | 10003 ft | 351 kts | 66° |
| 2026-05-07 20:56 | 43.50841 | -70.97670 | 9645 ft | 347 kts | 66° |
| 2026-05-07 20:56 | 43.51668 | -70.94570 | 9346 ft | 341 kts | 66° |
| 2026-05-07 20:56 | 43.52476 | -70.91534 | 9014 ft | 335 kts | 66° |
| 2026-05-07 20:57 | 43.53276 | -70.88533 | 8623 ft | 332 kts | 66° |
| 2026-05-07 20:57 | 43.54120 | -70.85595 | 8274 ft | 326 kts | 59° |
| 2026-05-07 20:57 | 43.55189 | -70.82871 | 7926 ft | 322 kts | 57° |
| 2026-05-07 20:57 | 43.56249 | -70.80186 | 7708 ft | 314 kts | 58° |
| 2026-05-07 20:58 | 43.57036 | -70.78179 | 7605 ft | 306 kts | 58° |
| 2026-05-07 20:58 | 43.58052 | -70.75583 | 7303 ft | 302 kts | 58° |
| 2026-05-07 20:58 | 43.59135 | -70.73055 | 6732 ft | 306 kts | 48° |
| 2026-05-07 20:58 | 43.60642 | -70.71012 | 6345 ft | 297 kts | 30° |
| 2026-05-07 20:59 | 43.62354 | -70.69518 | 5970 ft | 295 kts | 30° |
| 2026-05-07 20:59 | 43.64033 | -70.67887 | 5564 ft | 294 kts | 32° |
| 2026-05-07 20:59 | 43.65405 | -70.66092 | 5203 ft | 298 kts | 49° |
| 2026-05-07 20:59 | 43.66272 | -70.63519 | 5144 ft | 298 kts | 74° |
| 2026-05-07 21:00 | 43.66363 | -70.60615 | 4992 ft | 307 kts | 100° |
| 2026-05-07 21:00 | 43.65669 | -70.57823 | 5007 ft | 309 kts | 112° |
| 2026-05-07 21:00 | 43.64853 | -70.55079 | 5012 ft | 309 kts | 112° |
| 2026-05-07 21:00 | 43.64033 | -70.52332 | 5009 ft | 309 kts | 112° |
| 2026-05-07 21:01 | 43.63216 | -70.49592 | 5003 ft | 309 kts | 112° |
| 2026-05-07 21:01 | 43.62402 | -70.46854 | 5006 ft | 309 kts | 112° |
| 2026-05-07 21:01 | 43.61587 | -70.44106 | 5007 ft | 309 kts | 112° |
| 2026-05-07 21:01 | 43.60773 | -70.41355 | 5006 ft | 310 kts | 112° |
| 2026-05-07 21:02 | 43.59956 | -70.38611 | 5005 ft | 309 kts | 112° |
| 2026-05-07 21:02 | 43.59156 | -70.35934 | 4999 ft | 294 kts | 112° |
| 2026-05-07 21:02 | 43.58383 | -70.33359 | 5001 ft | 288 kts | 112° |
| 2026-05-07 21:02 | 43.57616 | -70.30808 | 5003 ft | 288 kts | 112° |
| 2026-05-07 21:03 | 43.56852 | -70.28259 | 5005 ft | 287 kts | 112° |
| 2026-05-07 21:03 | 43.56090 | -70.25712 | 5002 ft | 287 kts | 112° |
| 2026-05-07 21:03 | 43.55330 | -70.23166 | 4998 ft | 287 kts | 112° |
| 2026-05-07 21:03 | 43.54569 | -70.20620 | 5005 ft | 288 kts | 112° |
| 2026-05-07 21:04 | 43.53803 | -70.18071 | 5006 ft | 288 kts | 112° |
| 2026-05-07 21:04 | 43.53032 | -70.15521 | 5006 ft | 288 kts | 112° |
| 2026-05-07 21:04 | 43.52262 | -70.12971 | 5012 ft | 288 kts | 112° |
| 2026-05-07 21:04 | 43.51493 | -70.10424 | 5004 ft | 287 kts | 112° |
| 2026-05-07 21:05 | 43.50752 | -70.07874 | 5008 ft | 287 kts | 107° |
| 2026-05-07 21:05 | 43.50519 | -70.05216 | 5005 ft | 273 kts | 83° |
| 2026-05-07 21:05 | 43.50981 | -70.02774 | 5007 ft | 260 kts | 60° |
| 2026-05-07 21:05 | 43.52001 | -70.00767 | 5006 ft | 253 kts | 40° |
| 2026-05-07 21:06 | 43.53410 | -69.99372 | 5003 ft | 248 kts | 25° |
| 2026-05-07 21:06 | 43.54913 | -69.98195 | 5004 ft | 249 kts | 25° |
| 2026-05-07 21:06 | 43.56437 | -69.97088 | 5007 ft | 245 kts | 14° |
| 2026-05-07 21:06 | 43.58068 | -69.97007 | 4870 ft | 231 kts | 338° |
| 2026-05-07 21:07 | 43.59344 | -69.98210 | 4591 ft | 221 kts | 305° |
| 2026-05-07 21:07 | 43.60179 | -69.99940 | 4386 ft | 214 kts | 302° |
| 2026-05-07 21:07 | 43.60995 | -70.01649 | 4163 ft | 209 kts | 302° |
| 2026-05-07 21:07 | 43.61566 | -70.03395 | 4032 ft | 194 kts | 283° |
| 2026-05-07 21:08 | 43.61824 | -70.05201 | 3701 ft | 190 kts | 281° |
| 2026-05-07 21:08 | 43.62066 | -70.06958 | 3473 ft | 183 kts | 281° |
| 2026-05-07 21:08 | 43.62297 | -70.08665 | 3172 ft | 180 kts | 281° |
| 2026-05-07 21:08 | 43.62525 | -70.10349 | 3015 ft | 179 kts | 281° |
| 2026-05-07 21:09 | 43.62751 | -70.12010 | 3007 ft | 176 kts | 281° |
| 2026-05-07 21:09 | 43.62974 | -70.13652 | 3003 ft | 173 kts | 281° |
| 2026-05-07 21:09 | 43.63191 | -70.15280 | 2850 ft | 172 kts | 281° |
| 2026-05-07 21:09 | 43.63398 | -70.16895 | 2584 ft | 168 kts | 281° |
| 2026-05-07 21:10 | 43.63572 | -70.18393 | 2429 ft | 155 kts | 280° |
| 2026-05-07 21:10 | 43.63723 | -70.19878 | 1934 ft | 156 kts | 277° |
| 2026-05-07 21:10 | 43.63784 | -70.21367 | 1484 ft | 155 kts | 274° |
| 2026-05-07 21:10 | 43.63844 | -70.22775 | 1188 ft | 139 kts | 280° |
| 2026-05-07 21:11 | 43.64006 | -70.24038 | 936 ft | 130 kts | 281° |
| 2026-05-07 21:11 | 43.64116 | -70.25270 | 725 ft | 130 kts | 275° |
| 2026-05-07 21:11 | 43.64231 | -70.27728 | 393 ft | 126 kts | 276° |
| 2026-05-07 21:12 | 43.64338 | -70.28957 | 256 ft | 129 kts | 276° |
| 2026-05-07 21:12 | 43.64419 | -70.30206 | 69 ft | 129 kts | 276° |
| 2026-05-07 21:12 | 43.64496 | -70.31266 | 69 ft | 87 kts | 275° |
| 2026-05-07 21:12 | 43.64537 | -70.31867 | 77 ft | 38 kts | 276° |
| 2026-05-07 21:13 | 43.64556 | -70.32073 | 82 ft | 18 kts | 283° |
| 2026-05-07 21:13 | 43.64611 | -70.32085 | 81 ft | 10 kts | 11° |
| 2026-05-07 21:13 | 43.64655 | -70.32019 | 78 ft | 12 kts | 92° |
| 2026-05-07 21:13 | 43.64649 | -70.31891 | 77 ft | 15 kts | 95° |
| 2026-05-07 21:14 | 43.64639 | -70.31730 | 75 ft | 19 kts | 95° |
| 2026-05-07 21:14 | 43.64626 | -70.31536 | 73 ft | 20 kts | 96° |
| 2026-05-07 21:14 | 43.64616 | -70.31420 | 63 ft | 5 kts | 96° |
| 2026-05-07 21:14 | 43.64635 | -70.31358 | 68 ft | 9 kts | 54° |
| 2026-05-07 21:15 | 43.64650 | -70.31302 | 70 ft | 6 kts | 123° |
| 2026-05-07 21:15 | 43.64641 | -70.31320 | 71 ft | 3 kts | 281° |
| 2026-05-07 21:15 | 43.64663 | -70.31327 | 66 ft | 5 kts | 13° |
| 2026-05-07 21:15 | 43.64687 | -70.31290 | 70 ft | 6 kts | 68° |
| 2026-05-07 21:16 | 43.64704 | -70.31256 | 69 ft | 0 kts | 49° |